createdAt,value
2023-05-04T00:00:30.186Z,59.36
2023-05-04T00:03:12.467Z,59.45
2023-05-04T00:05:40.316Z,59.52
2023-05-04T00:08:08.200Z,59.53
2023-05-04T00:10:36.127Z,59.44
2023-05-04T00:13:03.974Z,59.55
2023-05-04T00:15:31.763Z,59.58
2023-05-04T00:17:59.521Z,59.52
2023-05-04T00:20:27.556Z,59.47
2023-05-04T00:22:55.592Z,59.64
2023-05-04T00:25:23.682Z,59.75
2023-05-04T00:27:51.369Z,59.98
2023-05-04T00:30:19.639Z,60.15
2023-05-04T00:32:48.372Z,60.18
2023-05-04T00:35:16.259Z,60.21
2023-05-04T00:37:46.182Z,60.15
2023-05-04T00:40:13.986Z,60.20
2023-05-04T00:42:41.744Z,60.25
2023-05-04T00:45:10.058Z,60.31
2023-05-04T00:47:38.021Z,60.25
2023-05-04T00:50:06.839Z,60.28
2023-05-04T00:52:36.439Z,60.28
2023-05-04T00:55:04.577Z,60.23
2023-05-04T00:57:32.505Z,60.24
2023-05-04T01:00:00.373Z,60.17
2023-05-04T01:02:28.243Z,60.23
2023-05-04T01:04:56.493Z,60.05
2023-05-04T01:07:24.452Z,59.96
2023-05-04T01:10:04.604Z,60.01
2023-05-04T01:12:49.046Z,59.99
2023-05-04T01:15:17.989Z,60.15
2023-05-04T01:17:46.099Z,60.14
2023-05-04T01:20:14.700Z,60.22
2023-05-04T01:22:43.254Z,60.43
2023-05-04T01:25:11.524Z,60.41
2023-05-04T01:27:45.522Z,60.75
2023-05-04T01:30:17.132Z,60.96
2023-05-04T01:32:45.196Z,61.16
2023-05-04T01:35:13.895Z,61.33
2023-05-04T01:37:41.805Z,61.40
2023-05-04T01:40:09.948Z,61.46
2023-05-04T01:42:37.818Z,61.40
2023-05-04T01:45:06.622Z,61.40
2023-05-04T01:47:34.438Z,61.40
2023-05-04T01:50:02.601Z,61.45
2023-05-04T01:52:30.662Z,61.33
2023-05-04T01:54:58.413Z,61.19
2023-05-04T01:57:26.504Z,61.48
2023-05-04T01:59:54.484Z,61.57
2023-05-04T02:02:22.224Z,61.65
2023-05-04T02:04:50.041Z,61.41
2023-05-04T02:07:18.017Z,61.44
2023-05-04T02:09:45.888Z,61.46
2023-05-04T02:12:13.726Z,61.48
2023-05-04T02:14:41.453Z,61.43
2023-05-04T02:17:09.253Z,61.29
2023-05-04T02:19:38.249Z,61.23
2023-05-04T02:22:06.385Z,61.19
2023-05-04T02:24:34.354Z,61.19
2023-05-04T02:27:02.739Z,61.30
2023-05-04T02:29:30.527Z,61.48
2023-05-04T02:31:58.515Z,61.70
2023-05-04T02:34:26.426Z,61.89
2023-05-04T02:36:55.799Z,61.94
2023-05-04T02:39:23.590Z,62.04
2023-05-04T02:41:51.347Z,62.13
2023-05-04T02:44:21.392Z,62.17
2023-05-04T02:46:49.038Z,62.20
2023-05-04T02:49:16.965Z,62.21
2023-05-04T02:51:45.493Z,62.20
2023-05-04T02:54:13.253Z,62.34
2023-05-04T02:56:40.999Z,62.60
2023-05-04T02:59:08.896Z,62.77
2023-05-04T03:01:36.761Z,62.93
2023-05-04T03:04:05.961Z,62.99
2023-05-04T03:06:33.777Z,63.14
2023-05-04T03:09:01.865Z,63.10
2023-05-04T03:11:29.656Z,63.16
2023-05-04T03:13:57.299Z,63.08
2023-05-04T03:16:25.143Z,63.04
2023-05-04T03:18:53.027Z,62.90
2023-05-04T03:21:21.366Z,62.91
2023-05-04T03:23:49.525Z,62.91
2023-05-04T03:26:17.715Z,62.86
2023-05-04T03:28:45.665Z,62.81
2023-05-04T03:31:13.342Z,62.70
2023-05-04T03:33:41.564Z,62.55
2023-05-04T03:36:09.460Z,62.43
2023-05-04T03:38:37.678Z,62.27
2023-05-04T03:41:05.784Z,62.03
2023-05-04T03:43:33.533Z,61.94
2023-05-04T03:46:01.453Z,61.93
2023-05-04T03:48:29.214Z,61.89
2023-05-04T03:50:57.415Z,62.12
2023-05-04T03:53:25.681Z,62.21
2023-05-04T03:55:53.558Z,62.11
2023-05-04T03:58:22.494Z,62.13
2023-05-04T04:00:50.265Z,62.46
2023-05-04T04:03:18.702Z,62.57
2023-05-04T04:05:46.731Z,62.77
2023-05-04T04:08:14.571Z,62.79
2023-05-04T04:10:42.861Z,62.86
2023-05-04T04:13:10.916Z,62.79
2023-05-04T04:15:38.712Z,62.48
2023-05-04T04:18:06.490Z,62.49
2023-05-04T04:20:34.512Z,62.53
2023-05-04T04:23:02.176Z,62.48
2023-05-04T04:25:30.814Z,62.42
2023-05-04T04:27:58.489Z,62.20
2023-05-04T04:30:26.454Z,64.03
2023-05-04T04:32:56.963Z,62.53
2023-05-04T04:35:24.726Z,61.80
2023-05-04T04:37:52.681Z,61.57
2023-05-04T04:40:20.461Z,61.65
2023-05-04T04:42:48.714Z,61.80
2023-05-04T04:45:16.763Z,61.58
2023-05-04T04:47:45.170Z,60.86
2023-05-04T04:50:13.224Z,59.86
2023-05-04T04:52:43.750Z,59.33
2023-05-04T04:55:11.619Z,58.54
2023-05-04T04:57:39.306Z,57.84
2023-05-04T05:00:09.838Z,57.19
2023-05-04T05:02:37.785Z,56.10
2023-05-04T05:05:06.030Z,55.41
2023-05-04T05:07:34.172Z,54.74
2023-05-04T05:10:01.966Z,54.18
2023-05-04T05:12:29.855Z,53.90
2023-05-04T05:14:57.783Z,53.55
2023-05-04T05:17:26.076Z,53.29
2023-05-04T05:19:54.036Z,52.93
2023-05-04T05:22:22.418Z,52.24
2023-05-04T05:24:50.294Z,52.65
2023-05-04T05:27:18.087Z,52.33
2023-05-04T05:29:46.190Z,51.89
2023-05-04T05:32:14.049Z,51.02
2023-05-04T05:34:42.364Z,50.47
2023-05-04T05:37:10.397Z,50.50
2023-05-04T05:39:38.178Z,50.71
2023-05-04T05:42:06.169Z,50.27
2023-05-04T05:44:39.929Z,49.65
2023-05-04T05:47:07.659Z,49.56
2023-05-04T05:49:35.622Z,49.20
2023-05-04T05:52:03.365Z,48.85
2023-05-04T05:54:32.085Z,48.74
2023-05-04T05:57:00.057Z,48.61
2023-05-04T05:59:27.850Z,48.90
2023-05-04T06:01:56.305Z,49.27
2023-05-04T06:04:23.985Z,50.09
2023-05-04T06:06:51.735Z,50.53
2023-05-04T06:09:19.782Z,50.20
2023-05-04T06:11:47.636Z,50.03
2023-05-04T06:14:15.464Z,50.40
2023-05-04T06:16:43.481Z,50.88
2023-05-04T06:19:11.679Z,51.33
2023-05-04T06:21:40.330Z,51.30
2023-05-04T06:24:08.141Z,51.25
2023-05-04T06:26:35.918Z,51.33
2023-05-04T06:29:03.646Z,51.07
2023-05-04T06:31:31.370Z,50.48
2023-05-04T06:33:59.056Z,50.43
2023-05-04T06:36:27.032Z,50.54
2023-05-04T06:38:58.000Z,50.86
2023-05-04T06:41:25.867Z,51.13
2023-05-04T06:43:53.801Z,51.44
2023-05-04T06:46:21.668Z,51.70
2023-05-04T06:48:49.399Z,51.91
2023-05-04T06:51:17.167Z,51.77
2023-05-04T06:53:45.085Z,51.83
2023-05-04T06:56:13.021Z,52.02
2023-05-04T06:58:40.744Z,52.06
2023-05-04T07:01:11.514Z,52.45
2023-05-04T07:03:39.444Z,52.50
2023-05-04T07:06:07.369Z,52.35
2023-05-04T07:08:35.119Z,52.22
2023-05-04T07:11:03.010Z,52.06
2023-05-04T07:13:30.756Z,51.90
2023-05-04T07:15:58.542Z,52.06
2023-05-04T07:18:26.389Z,51.97
2023-05-04T07:20:58.826Z,52.08
2023-05-04T07:23:34.470Z,52.28
2023-05-04T07:26:02.412Z,52.42
2023-05-04T07:28:30.207Z,52.31
2023-05-04T07:30:57.991Z,52.50
2023-05-04T07:33:26.544Z,52.68
2023-05-04T07:35:58.755Z,52.74
2023-05-04T07:38:26.957Z,52.70
2023-05-04T07:40:54.806Z,52.63
2023-05-04T07:43:23.000Z,52.47
2023-05-04T07:45:52.806Z,52.21
2023-05-04T07:48:20.678Z,52.13
2023-05-04T07:50:48.942Z,52.17
2023-05-04T07:53:16.709Z,52.09
2023-05-04T07:55:44.399Z,51.84
2023-05-04T07:58:13.421Z,51.71
2023-05-04T08:00:41.921Z,51.54
2023-05-04T08:03:09.676Z,51.19
2023-05-04T08:05:37.536Z,51.00
2023-05-04T08:08:05.466Z,50.40
2023-05-04T08:10:36.550Z,50.26
2023-05-04T08:13:05.341Z,50.50
2023-05-04T08:15:33.070Z,48.93
2023-05-04T08:18:00.965Z,47.28
2023-05-04T08:20:29.011Z,46.54
2023-05-04T08:22:56.849Z,46.20
2023-05-04T08:25:24.872Z,45.47
2023-05-04T08:27:53.030Z,45.24
2023-05-04T08:30:22.027Z,45.33
2023-05-04T08:32:51.703Z,44.02
2023-05-04T08:35:19.522Z,43.00
2023-05-04T08:37:47.970Z,42.59
2023-05-04T08:40:15.846Z,42.09
2023-05-04T08:42:47.915Z,42.12
2023-05-04T08:45:16.212Z,42.12
2023-05-04T08:47:44.956Z,42.44
2023-05-04T08:50:13.332Z,42.63
2023-05-04T08:52:46.346Z,42.66
2023-05-04T08:55:14.730Z,42.28
2023-05-04T08:57:43.360Z,41.53
2023-05-04T09:00:12.288Z,41.43
2023-05-04T09:02:40.490Z,40.46
2023-05-04T09:05:09.770Z,40.59
2023-05-04T09:07:38.160Z,40.80
2023-05-04T09:10:06.377Z,41.20
2023-05-04T09:12:34.206Z,41.06
2023-05-04T09:15:05.763Z,40.85
2023-05-04T09:17:35.199Z,40.88
2023-05-04T09:20:04.709Z,40.56
2023-05-04T09:22:32.519Z,40.81
2023-05-04T09:25:06.749Z,40.70
2023-05-04T09:27:34.539Z,41.18
2023-05-04T09:30:02.432Z,41.62
2023-05-04T09:32:30.171Z,42.17
2023-05-04T09:34:58.122Z,41.59
2023-05-04T09:37:25.997Z,40.95
2023-05-04T09:39:55.412Z,40.59
2023-05-04T09:42:24.135Z,40.23
2023-05-04T09:44:59.570Z,40.35
2023-05-04T09:47:35.034Z,40.09
2023-05-04T09:50:20.913Z,40.20
2023-05-04T09:52:49.969Z,40.33
2023-05-04T09:55:19.081Z,40.33
2023-05-04T09:57:48.015Z,40.58
2023-05-04T10:00:17.402Z,40.56
2023-05-04T10:02:46.494Z,40.75
2023-05-04T10:05:16.680Z,40.52
2023-05-04T10:07:45.262Z,40.24
2023-05-04T10:10:13.788Z,40.08
2023-05-04T10:12:41.670Z,40.15
2023-05-04T10:15:10.930Z,40.06
2023-05-04T10:17:53.772Z,40.11
2023-05-04T10:20:41.601Z,39.69
2023-05-04T10:23:16.765Z,39.33
2023-05-04T10:25:53.630Z,39.36
2023-05-04T10:28:24.163Z,39.59
2023-05-04T10:30:56.630Z,39.38
2023-05-04T10:33:37.521Z,39.35
2023-05-04T10:36:05.729Z,39.29
2023-05-04T10:38:34.648Z,38.75
2023-05-04T10:41:14.872Z,38.19
2023-05-04T10:43:42.982Z,37.32
2023-05-04T10:46:17.869Z,37.24
2023-05-04T10:48:46.074Z,36.52
2023-05-04T10:51:26.592Z,36.28
2023-05-04T10:54:01.443Z,36.78
2023-05-04T10:56:29.235Z,37.01
2023-05-04T10:58:57.246Z,36.86
2023-05-04T11:01:25.013Z,36.96
2023-05-04T11:03:52.997Z,37.04
2023-05-04T11:06:23.393Z,36.45
2023-05-04T11:09:01.332Z,35.01
2023-05-04T11:11:29.333Z,34.54
2023-05-04T11:13:57.479Z,34.81
2023-05-04T11:16:26.491Z,34.42
2023-05-04T11:18:54.917Z,33.86
2023-05-04T11:21:26.406Z,34.12
2023-05-04T11:23:55.538Z,34.16
2023-05-04T11:26:24.440Z,33.68
2023-05-04T11:28:52.318Z,33.55
2023-05-04T11:31:20.954Z,33.70
2023-05-04T11:33:49.243Z,33.88
2023-05-04T11:36:17.354Z,33.53
2023-05-04T11:38:45.524Z,33.39
2023-05-04T11:41:13.368Z,33.37
2023-05-04T11:43:42.344Z,33.65
2023-05-04T11:46:10.677Z,33.90
2023-05-04T11:48:38.631Z,34.19
2023-05-04T11:51:06.679Z,34.06
2023-05-04T11:53:38.588Z,34.04
2023-05-04T11:56:08.786Z,34.58
2023-05-04T11:58:36.960Z,35.08
2023-05-04T12:01:05.054Z,34.76
2023-05-04T12:03:43.762Z,34.89
2023-05-04T12:06:30.437Z,35.32
2023-05-04T12:09:06.018Z,34.85
2023-05-04T12:11:34.275Z,34.14
2023-05-04T12:14:06.530Z,34.02
2023-05-04T12:16:34.481Z,34.59
2023-05-04T12:19:03.222Z,35.13
2023-05-04T12:21:32.592Z,34.41
2023-05-04T12:24:00.720Z,33.61
2023-05-04T12:26:28.457Z,33.68
2023-05-04T12:28:57.087Z,33.84
2023-05-04T12:31:25.458Z,34.10
2023-05-04T12:33:53.405Z,33.95
2023-05-04T12:36:21.289Z,33.46
2023-05-04T12:38:49.326Z,33.35
2023-05-04T12:41:17.055Z,33.64
2023-05-04T12:43:44.754Z,33.99
2023-05-04T12:46:12.778Z,34.10
2023-05-04T12:48:40.568Z,33.80
2023-05-04T12:51:08.456Z,33.67
2023-05-04T12:53:36.838Z,34.24
2023-05-04T12:56:04.672Z,34.85
2023-05-04T12:58:32.552Z,33.55
2023-05-04T13:01:00.610Z,33.63
2023-05-04T13:03:28.550Z,33.87
2023-05-04T13:05:57.345Z,33.46
2023-05-04T13:08:25.163Z,33.44
2023-05-04T13:10:52.954Z,33.38
2023-05-04T13:13:24.548Z,33.41
2023-05-04T13:15:53.105Z,33.67
2023-05-04T13:18:20.924Z,33.97
2023-05-04T13:20:50.604Z,33.83
2023-05-04T13:23:18.671Z,33.64
2023-05-04T13:25:46.354Z,34.35
2023-05-04T13:28:14.017Z,34.32
2023-05-04T13:30:41.764Z,34.89
2023-05-04T13:33:20.755Z,35.04
2023-05-04T13:35:58.385Z,35.39
2023-05-04T13:38:26.921Z,35.54
2023-05-04T13:40:55.148Z,35.76
2023-05-04T13:43:23.225Z,35.55
2023-05-04T13:45:51.633Z,36.01
2023-05-04T13:48:19.442Z,36.12
2023-05-04T13:50:47.148Z,36.33
2023-05-04T13:53:14.822Z,36.92
2023-05-04T13:55:42.630Z,37.06
2023-05-04T13:58:10.490Z,37.01
2023-05-04T14:00:38.569Z,37.25
2023-05-04T14:03:06.520Z,37.33
2023-05-04T14:05:35.497Z,37.17
2023-05-04T14:08:03.613Z,37.79
2023-05-04T14:10:31.338Z,37.84
2023-05-04T14:12:59.487Z,38.15
2023-05-04T14:15:27.806Z,37.86
2023-05-04T14:17:55.573Z,38.17
2023-05-04T14:20:23.582Z,38.13
2023-05-04T14:22:51.460Z,38.26
2023-05-04T14:25:19.149Z,38.32
2023-05-04T14:27:46.984Z,38.75
2023-05-04T14:30:14.962Z,39.00
2023-05-04T14:32:42.851Z,39.14
2023-05-04T14:35:11.308Z,38.92
2023-05-04T14:37:39.935Z,39.66
2023-05-04T14:40:09.388Z,40.11
2023-05-04T14:42:38.302Z,40.69
2023-05-04T14:45:07.562Z,40.62
2023-05-04T14:47:36.193Z,40.17
2023-05-04T14:50:04.302Z,40.28
2023-05-04T14:52:32.080Z,40.05
2023-05-04T14:54:59.967Z,39.19
2023-05-04T14:57:27.711Z,39.03
2023-05-04T14:59:55.470Z,39.87
2023-05-04T15:02:23.482Z,41.40
2023-05-04T15:04:51.533Z,42.40
2023-05-04T15:07:21.081Z,43.28
2023-05-04T15:09:48.840Z,43.53
2023-05-04T15:12:17.523Z,44.03
2023-05-04T15:14:46.131Z,44.50
2023-05-04T15:17:14.194Z,44.68
2023-05-04T15:19:43.519Z,44.61
2023-05-04T15:22:11.444Z,44.80
2023-05-04T15:24:39.221Z,44.37
2023-05-04T15:27:07.003Z,44.39
2023-05-04T15:29:34.911Z,44.68
2023-05-04T15:32:02.818Z,44.99
2023-05-04T15:34:30.808Z,45.70
2023-05-04T15:36:58.688Z,46.24
2023-05-04T15:39:26.643Z,46.28
2023-05-04T15:41:54.633Z,46.21
2023-05-04T15:44:22.872Z,46.12
2023-05-04T15:46:51.289Z,46.27
2023-05-04T15:49:19.302Z,46.22
2023-05-04T15:51:47.492Z,46.28
2023-05-04T15:54:15.596Z,46.76
2023-05-04T15:56:43.591Z,46.92
2023-05-04T15:59:11.357Z,47.50
2023-05-04T16:01:40.016Z,48.13
2023-05-04T16:04:08.069Z,48.78
2023-05-04T16:06:35.829Z,49.13
2023-05-04T16:09:04.012Z,49.90
2023-05-04T16:11:33.131Z,50.40
2023-05-04T16:14:01.101Z,50.98
2023-05-04T16:16:28.891Z,51.45
2023-05-04T16:18:56.838Z,52.15
2023-05-04T16:21:24.585Z,52.70
2023-05-04T16:23:52.632Z,53.32
2023-05-04T16:26:21.014Z,53.80
2023-05-04T16:28:48.821Z,55.07
2023-05-04T16:31:16.671Z,55.39
2023-05-04T16:33:47.767Z,55.74
2023-05-04T16:36:15.952Z,55.84
2023-05-04T16:38:43.745Z,56.27
2023-05-04T16:41:11.587Z,56.07
2023-05-04T16:43:39.294Z,55.59
2023-05-04T16:46:07.053Z,55.06
2023-05-04T16:48:34.982Z,54.38
2023-05-04T16:51:04.383Z,54.09
2023-05-04T16:53:32.311Z,53.73
2023-05-04T16:56:00.028Z,53.40
2023-05-04T16:58:28.354Z,53.20
2023-05-04T17:00:56.141Z,52.71
2023-05-04T17:03:23.979Z,52.21
2023-05-04T17:05:51.865Z,51.77
2023-05-04T17:08:19.745Z,51.22
2023-05-04T17:10:47.471Z,50.92
2023-05-04T17:13:15.252Z,50.90
2023-05-04T17:15:43.050Z,50.72
2023-05-04T17:18:10.945Z,50.86
2023-05-04T17:20:38.632Z,50.73
2023-05-04T17:23:06.587Z,50.68
2023-05-04T17:25:34.291Z,50.51
2023-05-04T17:28:02.302Z,50.64
2023-05-04T17:30:30.249Z,50.73
2023-05-04T17:32:58.057Z,50.71
2023-05-04T17:35:26.750Z,50.84
2023-05-04T17:37:58.035Z,50.93
2023-05-04T17:40:28.091Z,51.02
2023-05-04T17:42:56.768Z,51.19
2023-05-04T17:45:24.504Z,51.21
2023-05-04T17:47:52.818Z,51.21
2023-05-04T17:50:21.357Z,51.48
2023-05-04T17:52:53.033Z,51.83
2023-05-04T17:55:23.537Z,52.30
2023-05-04T17:57:52.405Z,52.58
2023-05-04T18:00:20.779Z,52.50
2023-05-04T18:02:50.057Z,52.45
2023-05-04T18:05:17.991Z,52.83
2023-05-04T18:07:45.690Z,53.02
2023-05-04T18:10:13.610Z,53.02
2023-05-04T18:12:41.601Z,53.14
2023-05-04T18:15:09.783Z,53.46
2023-05-04T18:17:40.564Z,53.67
2023-05-04T18:20:09.346Z,53.84
2023-05-04T18:22:37.281Z,54.17
2023-05-04T18:25:05.210Z,54.33
2023-05-04T18:27:33.957Z,54.48
2023-05-04T18:30:02.599Z,54.73
2023-05-04T18:32:30.645Z,55.06
2023-05-04T18:34:58.586Z,55.29
2023-05-04T18:37:26.737Z,55.63
2023-05-04T18:39:54.510Z,55.82
2023-05-04T18:42:22.715Z,56.02
2023-05-04T18:44:51.020Z,55.91
2023-05-04T18:47:18.821Z,55.80
2023-05-04T18:49:51.039Z,55.83
2023-05-04T18:52:18.714Z,56.20
2023-05-04T18:54:46.655Z,56.45
2023-05-04T18:57:15.050Z,56.88
2023-05-04T18:59:43.095Z,57.68
2023-05-04T19:02:11.062Z,58.27
2023-05-04T19:04:39.038Z,58.82
2023-05-04T19:07:06.815Z,59.07
2023-05-04T19:09:34.666Z,59.43
2023-05-04T19:12:03.848Z,59.38
2023-05-04T19:14:31.894Z,59.91
2023-05-04T19:17:00.775Z,60.25
2023-05-04T19:19:28.676Z,60.36
2023-05-04T19:21:56.526Z,60.40
2023-05-04T19:24:24.319Z,60.31
2023-05-04T19:26:52.411Z,60.65
2023-05-04T19:29:20.424Z,60.67
2023-05-04T19:31:48.357Z,60.62
2023-05-04T19:34:17.709Z,61.05
2023-05-04T19:36:45.866Z,61.20
2023-05-04T19:39:13.687Z,61.27
2023-05-04T19:41:41.449Z,60.88
2023-05-04T19:44:10.412Z,60.81
2023-05-04T19:46:38.212Z,60.57
2023-05-04T19:49:05.972Z,60.53
2023-05-04T19:51:34.168Z,61.04
2023-05-04T19:54:01.964Z,61.26
2023-05-04T19:56:29.942Z,61.27
2023-05-04T19:58:57.618Z,61.67
2023-05-04T20:01:25.384Z,61.74
2023-05-04T20:03:53.703Z,61.93
2023-05-04T20:06:21.395Z,62.21
2023-05-04T20:08:49.421Z,62.29
2023-05-04T20:11:17.084Z,62.54
2023-05-04T20:13:44.821Z,62.64
2023-05-04T20:16:13.050Z,62.59
2023-05-04T20:18:40.755Z,62.86
2023-05-04T20:21:08.559Z,62.86
2023-05-04T20:23:36.745Z,62.82
2023-05-04T20:26:06.119Z,62.93
2023-05-04T20:28:33.960Z,62.89
2023-05-04T20:31:01.838Z,62.86
2023-05-04T20:33:29.615Z,63.00
2023-05-04T20:35:57.250Z,62.92
2023-05-04T20:38:25.180Z,63.04
2023-05-04T20:40:53.201Z,62.76
2023-05-04T20:43:20.956Z,62.75
2023-05-04T20:45:49.029Z,62.62
2023-05-04T20:48:17.352Z,62.59
2023-05-04T20:50:45.395Z,62.53
2023-05-04T20:53:13.202Z,62.43
2023-05-04T20:55:43.446Z,62.63
2023-05-04T20:58:11.500Z,62.60
2023-05-04T21:00:40.036Z,62.74
2023-05-04T21:03:08.175Z,62.72
2023-05-04T21:05:37.965Z,62.69
2023-05-04T21:08:05.865Z,62.54
2023-05-04T21:10:33.523Z,62.49
2023-05-04T21:13:01.800Z,62.48
2023-05-04T21:15:29.587Z,62.28
2023-05-04T21:17:57.386Z,62.24
2023-05-04T21:20:25.028Z,62.35
2023-05-04T21:22:52.992Z,62.40
2023-05-04T21:25:20.617Z,62.47
2023-05-04T21:27:48.374Z,62.68
2023-05-04T21:30:16.245Z,62.64
2023-05-04T21:32:44.071Z,62.64
2023-05-04T21:35:11.758Z,62.81
2023-05-04T21:37:39.529Z,63.06
2023-05-04T21:40:08.735Z,62.89
2023-05-04T21:42:36.866Z,62.87
2023-05-04T21:45:05.156Z,63.14
2023-05-04T21:47:32.960Z,63.15
2023-05-04T21:50:04.021Z,63.05
2023-05-04T21:52:31.727Z,63.13
2023-05-04T21:54:59.520Z,63.14
2023-05-04T21:57:27.580Z,63.22
2023-05-04T21:59:55.604Z,63.20
2023-05-04T22:02:23.275Z,63.21
2023-05-04T22:04:51.440Z,63.19
2023-05-04T22:07:19.163Z,63.14
2023-05-04T22:09:46.879Z,63.21
2023-05-04T22:12:14.897Z,63.45
2023-05-04T22:14:42.734Z,63.38
2023-05-04T22:17:11.065Z,63.35
2023-05-04T22:19:38.901Z,63.47
2023-05-04T22:22:06.648Z,63.39
2023-05-04T22:24:34.697Z,63.33
2023-05-04T22:27:03.364Z,63.22
2023-05-04T22:29:33.522Z,63.15
2023-05-04T22:32:01.379Z,62.98
2023-05-04T22:34:29.111Z,62.78
2023-05-04T22:36:56.850Z,62.75
2023-05-04T22:39:24.556Z,62.73
2023-05-04T22:41:52.250Z,62.55
2023-05-04T22:44:20.222Z,62.44
2023-05-04T22:46:48.895Z,62.38
2023-05-04T22:49:17.318Z,62.33
2023-05-04T22:51:45.255Z,62.43
2023-05-04T22:54:12.921Z,62.44
2023-05-04T22:56:40.969Z,62.54
2023-05-04T22:59:08.992Z,62.41
2023-05-04T23:01:42.437Z,62.39
2023-05-04T23:04:11.590Z,62.21
2023-05-04T23:06:39.345Z,64.33
2023-05-04T23:09:07.091Z,66.22
2023-05-04T23:11:34.833Z,66.68
2023-05-04T23:14:03.308Z,66.77
2023-05-04T23:16:31.212Z,66.92
2023-05-04T23:18:59.252Z,66.91
2023-05-04T23:21:27.344Z,66.98
2023-05-04T23:23:55.286Z,67.05
2023-05-04T23:26:23.208Z,67.03
2023-05-04T23:28:51.019Z,67.42
2023-05-04T23:31:20.049Z,67.44
2023-05-04T23:33:47.809Z,67.47
2023-05-04T23:36:15.931Z,67.44
2023-05-04T23:38:43.842Z,67.57
2023-05-04T23:41:12.531Z,67.76
2023-05-04T23:43:40.295Z,67.69
2023-05-04T23:46:08.134Z,67.64
2023-05-04T23:48:36.017Z,67.75
2023-05-04T23:51:03.933Z,67.66
2023-05-04T23:53:33.569Z,67.64
2023-05-04T23:56:03.823Z,67.58
2023-05-04T23:58:33.374Z,67.46
